Time;durP1;ratioP1;P1;durP2;ratioP2;P2;SDS_P1;SDS_P2;PMS_P1;PMS_P2;Temp;Humidity;BMP_temperature;BMP_pressure;BME280_temperature;BME280_humidity;BME280_pressure;Samples;Min_cycle;Max_cycle;Signal;HPM_P1;HPM_P2
2022/02/09 00:03:02;;;;;;;;;;;10.10;99.90;;;;;;4890741;29;19927;-90
2022/02/09 00:05:27;;;;;;;;;;;9.90;99.90;;;;;;4917881;29;20399;-90
2022/02/09 00:08:12;;;;;;;;;;;9.90;99.90;;;;;;4920952;29;19938;-90
2022/02/09 00:10:46;;;;;;;;;;;10.10;99.90;;;;;;4919576;29;19927;-90
2022/02/09 00:14:15;;;;;;;;;;;10.10;99.90;;;;;;4889949;29;19943;-90
2022/02/09 00:59:09;;;;;;;;;;;10.10;99.90;;;;;;4905112;29;19927;-90
2022/02/09 01:51:10;;;;;;;;;;;10.10;99.90;;;;;;4904032;29;19951;-92
2022/02/09 01:55:59;;;;;;;;;;;10.10;99.90;;;;;;4883340;29;19930;-91
2022/02/09 01:58:35;;;;;;;;;;;10.10;99.90;;;;;;4912461;29;19927;-90
2022/02/09 02:01:09;;;;;;;;;;;10.00;99.90;;;;;;4911216;29;19961;-91
2022/02/09 02:03:46;;;;;;;;;;;10.10;99.90;;;;;;4913558;29;19941;-90
2022/02/09 02:06:16;;;;;;;;;;;10.10;99.90;;;;;;4915828;29;19930;-91
2022/02/09 02:08:50;;;;;;;;;;;10.10;99.90;;;;;;4928390;29;19927;-91
2022/02/09 02:11:34;;;;;;;;;;;10.20;99.90;;;;;;4912841;29;19927;-91
2022/02/09 02:14:22;;;;;;;;;;;10.10;99.90;;;;;;4913978;29;19935;-91
2022/02/09 02:17:05;;;;;;;;;;;10.10;99.90;;;;;;4913320;29;19927;-89
2022/02/09 02:19:51;;;;;;;;;;;10.20;99.90;;;;;;4915517;29;19926;-90
2022/02/09 02:22:42;;;;;;;;;;;10.20;99.90;;;;;;4929086;29;19931;-90
2022/02/09 02:25:42;;;;;;;;;;;10.20;99.90;;;;;;4944224;29;19927;-90
2022/02/09 03:13:10;;;;;;;;;;;10.40;99.90;;;;;;4917342;29;19927;-90
2022/02/09 03:15:51;;;;;;;;;;;10.40;99.90;;;;;;4898562;29;19933;-90
2022/02/09 03:24:01;;;;;;;;;;;10.30;99.90;;;;;;4911498;29;19934;-90
2022/02/09 03:57:55;;;;;;;;;;;10.30;99.90;;;;;;4898550;29;19934;-91
2022/02/09 04:00:29;;;;;;;;;;;10.30;99.90;;;;;;4898971;29;19927;-91
2022/02/09 04:03:02;;;;;;;;;;;10.30;99.90;;;;;;4929122;29;19927;-90
2022/02/09 04:05:31;;;;;;;;;;;10.30;99.90;;;;;;4913792;29;19927;-90
2022/02/09 04:08:04;;;;;;;;;;;10.20;99.90;;;;;;4897509;29;19927;-91
2022/02/09 04:10:39;;;;;;;;;;;10.30;99.90;;;;;;4931790;29;19926;-90
2022/02/09 04:16:11;;;;;;;;;;;10.30;99.90;;;;;;4931462;29;19927;-91
2022/02/09 04:19:03;;;;;;;;;;;10.30;99.90;;;;;;4914878;29;19926;-90
2022/02/09 04:49:40;;;;;;;;;;;10.10;99.90;;;;;;4917119;29;19937;-91
2022/02/09 04:55:03;;;;;;;;;;;10.10;99.90;;;;;;4918308;29;19991;-91
2022/02/09 04:57:47;;;;;;;;;;;10.10;99.90;;;;;;4879675;29;19928;-91
2022/02/09 05:00:50;;;;;;;;;;;10.10;99.90;;;;;;4859067;29;20406;-91
2022/02/09 05:25:37;;;;;;;;;;;9.90;99.90;;;;;;4882750;29;19927;-91
2022/02/09 05:28:17;;;;;;;;;;;10.00;99.90;;;;;;4901557;29;19927;-91
2022/02/09 05:30:48;;;;;;;;;;;9.70;99.90;;;;;;4917079;29;19927;-91
2022/02/09 05:33:39;;;;;;;;;;;9.90;99.90;;;;;;4931391;29;19930;-90
2022/02/09 05:36:08;;;;;;;;;;;9.90;99.90;;;;;;4948631;29;19927;-91
2022/02/09 05:38:41;;;;;;;;;;;9.90;99.90;;;;;;4895969;29;19937;-90
2022/02/09 05:41:10;;;;;;;;;;;9.90;99.90;;;;;;4912555;29;20387;-91
2022/02/09 05:43:42;;;;;;;;;;;9.80;99.90;;;;;;4881392;29;19942;-91
2022/02/09 05:51:56;;;;;;;;;;;9.80;99.90;;;;;;4931734;29;19934;-91
2022/02/09 05:55:01;;;;;;;;;;;9.80;99.90;;;;;;4934191;29;19934;-90
2022/02/09 05:57:32;;;;;;;;;;;9.70;99.90;;;;;;4933588;29;19927;-90
2022/02/09 06:00:14;;;;;;;;;;;9.70;99.90;;;;;;4937076;29;19932;-89
2022/02/09 06:02:48;;;;;;;;;;;9.00;99.90;;;;;;4925509;29;19930;-90
2022/02/09 06:05:17;;;;;;;;;;;8.30;99.90;;;;;;4912501;29;19930;-91
2022/02/09 06:07:51;;;;;;;;;;;9.60;99.90;;;;;;4914285;29;19934;-90
2022/02/09 06:10:25;;;;;;;;;;;9.50;99.90;;;;;;4930658;29;19938;-90
2022/02/09 06:21:26;;;;;;;;;;;9.40;99.90;;;;;;4950312;28;19938;-90
2022/02/09 06:23:55;;;;;;;;;;;9.40;99.90;;;;;;4913990;29;19939;-90
2022/02/09 06:26:26;;;;;;;;;;;9.30;99.90;;;;;;4920689;29;20453;-90
2022/02/09 06:28:57;;;;;;;;;;;9.30;99.90;;;;;;4911647;29;20637;-90
2022/02/09 06:31:26;;;;;;;;;;;9.20;99.90;;;;;;4882381;29;20378;-90
2022/02/09 06:33:54;;;;;;;;;;;9.20;99.90;;;;;;4911922;29;20283;-91
2022/02/09 06:36:26;;;;;;;;;;;9.10;99.90;;;;;;4912538;29;19937;-91
2022/02/09 06:39:03;;;;;;;;;;;9.10;99.90;;;;;;4898960;29;19934;-91
2022/02/09 06:41:33;;;;;;;;;;;9.00;99.90;;;;;;4897869;29;19927;-91
2022/02/09 06:44:05;;;;;;;;;;;9.00;99.90;;;;;;4908587;29;19928;-90
2022/02/09 06:46:36;;;;;;;;;;;9.00;99.90;;;;;;4879881;29;19927;-91
2022/02/09 06:49:08;;;;;;;;;;;8.90;99.90;;;;;;4880633;29;19935;-90
2022/02/09 06:51:40;;;;;;;;;;;8.90;99.90;;;;;;4895164;29;19934;-91
2022/02/09 06:59:28;;;;;;;;;;;8.50;99.90;;;;;;4918150;29;19927;-91
2022/02/09 07:02:05;;;;;;;;;;;8.80;99.90;;;;;;4904636;29;19923;-91
2022/02/09 07:04:34;;;;;;;;;;;8.90;99.90;;;;;;4902905;29;19927;-91
2022/02/09 07:07:06;;;;;;;;;;;8.80;99.90;;;;;;4900106;29;19934;-89
2022/02/09 07:09:43;;;;;;;;;;;8.80;99.90;;;;;;4901245;29;19934;-91
2022/02/09 07:12:12;;;;;;;;;;;8.80;99.90;;;;;;4921137;29;19927;-91
2022/02/09 07:15:10;;;;;;;;;;;7.60;99.90;;;;;;4936172;23;19931;-92
2022/02/09 07:21:17;;;;;;;;;;;8.80;99.90;;;;;;4956282;23;19927;-91
2022/02/09 07:24:15;;;;;;;;;;;7.10;99.90;;;;;;4890042;29;19912;-89
2022/02/09 07:29:30;;;;;;;;;;;8.80;99.90;;;;;;4888995;29;19918;-91
2022/02/09 07:32:21;;;;;;;;;;;8.80;99.90;;;;;;4945726;23;19918;-91
2022/02/09 07:35:11;;;;;;;;;;;8.80;99.90;;;;;;4936494;29;19918;-91
2022/02/09 07:38:01;;;;;;;;;;;9.30;99.90;;;;;;4905676;29;19934;-91
2022/02/09 07:40:58;;;;;;;;;;;8.80;99.90;;;;;;4925665;29;19927;-91
2022/02/09 07:44:15;;;;;;;;;;;8.80;99.90;;;;;;4929771;23;19953;-89
2022/02/09 07:47:22;;;;;;;;;;;9.30;99.90;;;;;;4926283;29;19927;-91
2022/02/09 07:56:00;;;;;;;;;;;8.90;99.90;;;;;;4861388;29;19935;-89
2022/02/09 07:58:44;;;;;;;;;;;8.90;99.90;;;;;;4924582;29;19927;-90
2022/02/09 08:01:22;;;;;;;;;;;8.90;99.90;;;;;;4910188;29;19938;-90
2022/02/09 08:04:07;;;;;;;;;;;9.00;99.90;;;;;;4912418;29;19928;-89
2022/02/09 08:06:46;;;;;;;;;;;9.20;99.90;;;;;;4888585;29;19943;-91
2022/02/09 08:09:35;;;;;;;;;;;9.20;99.90;;;;;;4893373;29;19943;-88
2022/02/09 08:25:50;;;;;;;;;;;9.40;99.90;;;;;;4913224;29;19935;-90
2022/02/09 08:27:45;;;;;;;;;;;9.50;99.90;;;;;;4898055;29;19931;-91
2022/02/09 08:30:31;;;;;;;;;;;9.60;99.90;;;;;;4898456;29;19935;-91
2022/02/09 08:33:16;;;;;;;;;;;10.80;99.90;;;;;;4894797;29;19927;-89
2022/02/09 08:35:56;;;;;;;;;;;9.80;99.90;;;;;;4909231;29;19916;-89
2022/02/09 08:38:34;;;;;;;;;;;9.70;99.90;;;;;;4910037;29;19938;-90
2022/02/09 08:41:19;;;;;;;;;;;10.00;99.90;;;;;;4912708;29;19935;-91
2022/02/09 08:43:55;;;;;;;;;;;9.70;99.90;;;;;;4910971;29;19927;-90
2022/02/09 08:46:48;;;;;;;;;;;10.30;99.90;;;;;;4912919;29;19933;-91
2022/02/09 08:49:31;;;;;;;;;;;9.80;99.90;;;;;;4912065;29;19947;-91
2022/02/09 08:52:06;;;;;;;;;;;9.80;99.90;;;;;;4881481;29;19950;-91
2022/02/09 08:54:50;;;;;;;;;;;10.00;99.90;;;;;;4912850;29;19934;-93
2022/02/09 08:57:32;;;;;;;;;;;10.00;99.90;;;;;;4912009;29;20419;-92
2022/02/09 09:00:15;;;;;;;;;;;10.10;99.90;;;;;;4912356;29;19931;-91
2022/02/09 09:03:06;;;;;;;;;;;10.20;99.90;;;;;;4910739;29;19938;-91
2022/02/09 09:05:50;;;;;;;;;;;10.20;99.90;;;;;;4879810;29;19927;-91
2022/02/09 09:11:29;;;;;;;;;;;10.30;99.90;;;;;;4893072;29;19962;-91
2022/02/09 10:05:14;;;;;;;;;;;11.00;99.90;;;;;;4845325;29;19929;-92
2022/02/09 10:33:10;;;;;;;;;;;11.50;99.90;;;;;;4902097;29;19928;-91
2022/02/09 10:36:02;;;;;;;;;;;10.00;99.90;;;;;;4901699;29;19923;-90
2022/02/09 10:38:45;;;;;;;;;;;11.60;99.90;;;;;;4912690;29;20321;-90
2022/02/09 10:41:27;;;;;;;;;;;11.70;99.90;;;;;;4878884;29;19920;-89
2022/02/09 10:44:20;;;;;;;;;;;11.80;99.90;;;;;;4878076;29;19942;-90
2022/02/09 10:47:50;;;;;;;;;;;12.20;99.90;;;;;;4883617;29;19918;-89
2022/02/09 10:50:32;;;;;;;;;;;12.50;99.90;;;;;;4871385;29;19928;-91
2022/02/09 10:53:25;;;;;;;;;;;12.30;99.90;;;;;;4871062;29;19930;-90
2022/02/09 10:56:20;;;;;;;;;;;12.40;99.90;;;;;;4922701;23;19930;-89
2022/02/09 10:58:53;;;;;;;;;;;12.50;99.90;;;;;;4914523;29;19934;-90
2022/02/09 11:01:27;;;;;;;;;;;12.60;99.90;;;;;;4883354;29;19938;-90
2022/02/09 11:04:21;;;;;;;;;;;13.40;99.90;;;;;;4912939;29;19927;-91
2022/02/09 11:07:22;;;;;;;;;;;11.70;99.90;;;;;;4912759;29;19938;-89
2022/02/09 11:10:13;;;;;;;;;;;12.80;99.90;;;;;;4907901;29;19928;-90
2022/02/09 11:12:57;;;;;;;;;;;12.90;99.90;;;;;;4904208;29;19928;-88
2022/02/09 11:15:29;;;;;;;;;;;12.90;99.90;;;;;;4893275;29;20410;-90
2022/02/09 11:18:12;;;;;;;;;;;13.00;99.90;;;;;;4895667;29;19935;-89
2022/02/09 11:21:06;;;;;;;;;;;13.00;99.90;;;;;;4894738;29;19931;-88
2022/02/09 11:23:45;;;;;;;;;;;13.00;99.90;;;;;;4899533;29;20413;-90
2022/02/09 11:26:46;;;;;;;;;;;13.10;99.90;;;;;;4897314;29;19936;-88
2022/02/09 11:35:29;;;;;;;;;;;14.90;99.90;;;;;;4911981;29;19945;-92
2022/02/09 11:38:15;;;;;;;;;;;13.10;99.90;;;;;;4902276;29;19936;-86
2022/02/09 11:43:36;;;;;;;;;;;13.10;99.90;;;;;;4890535;29;19928;-87
2022/02/09 12:09:10;;;;;;;;;;;13.40;99.90;;;;;;4921096;29;19927;-86
2022/02/09 12:11:41;;;;;;;;;;;13.50;99.90;;;;;;4921230;29;19946;-87
2022/02/09 12:19:15;;;;;;;;;;;13.50;99.90;;;;;;4922893;29;19931;-87
2022/02/09 12:24:21;;;;;;;;;;;13.50;99.90;;;;;;4903477;29;20307;-86
2022/02/09 12:26:59;;;;;;;;;;;13.00;99.90;;;;;;4905028;29;19946;-87
2022/02/09 12:29:30;;;;;;;;;;;12.80;99.90;;;;;;4903351;29;19943;-87
2022/02/09 12:32:01;;;;;;;;;;;13.80;99.90;;;;;;4920624;29;19931;-87
2022/02/09 12:34:34;;;;;;;;;;;13.90;99.90;;;;;;4919916;29;20396;-87
2022/02/09 12:37:10;;;;;;;;;;;13.90;99.90;;;;;;4903286;29;19946;-87
2022/02/09 12:39:51;;;;;;;;;;;13.90;99.90;;;;;;4920816;29;19928;-88
2022/02/09 12:42:20;;;;;;;;;;;13.90;99.90;;;;;;4902003;29;19934;-86
2022/02/09 12:44:57;;;;;;;;;;;14.10;99.90;;;;;;4918593;29;19935;-88
2022/02/09 12:47:32;;;;;;;;;;;14.00;99.90;;;;;;4903406;29;19934;-88
2022/02/09 12:50:01;;;;;;;;;;;14.10;99.90;;;;;;4919192;29;20307;-86
2022/02/09 12:52:29;;;;;;;;;;;14.10;99.90;;;;;;4905418;29;19935;-87
2022/02/09 12:55:07;;;;;;;;;;;14.10;99.90;;;;;;4904697;29;19934;-88
2022/02/09 12:57:38;;;;;;;;;;;14.20;99.90;;;;;;4923033;29;19942;-88
2022/02/09 13:00:22;;;;;;;;;;;14.20;99.90;;;;;;4926974;29;19931;-88
2022/02/09 13:02:53;;;;;;;;;;;14.30;99.90;;;;;;4906867;29;19942;-86
2022/02/09 13:05:20;;;;;;;;;;;14.40;99.90;;;;;;4892087;29;20399;-85
2022/02/09 13:07:54;;;;;;;;;;;14.40;99.90;;;;;;4903907;29;19934;-89
2022/02/09 13:10:33;;;;;;;;;;;14.50;99.90;;;;;;4920558;29;19932;-88
2022/02/09 13:13:15;;;;;;;;;;;14.40;99.90;;;;;;4875384;29;19934;-87
2022/02/09 13:16:02;;;;;;;;;;;14.50;99.90;;;;;;4905027;29;19938;-84
2022/02/09 14:18:06;;;;;;;;;;;13.90;99.90;;;;;;4925643;29;19947;-88
2022/02/09 14:32:06;;;;;;;;;;;13.90;99.90;;;;;;4907146;29;19946;-87
2022/02/09 14:56:49;;;;;;;;;;;13.50;99.90;;;;;;4888332;29;19927;-86
2022/02/09 14:59:28;;;;;;;;;;;13.50;99.90;;;;;;4876041;29;19928;-88
2022/02/09 15:01:59;;;;;;;;;;;13.40;99.90;;;;;;4904657;29;19928;-88
2022/02/09 15:08:08;;;;;;;;;;;13.40;99.90;;;;;;4904624;29;20295;-88
2022/02/09 15:10:04;;;;;;;;;;;13.30;99.90;;;;;;4873775;29;19935;-89
2022/02/09 15:13:02;;;;;;;;;;;13.30;99.90;;;;;;4905145;29;19934;-91
2022/02/09 15:15:51;;;;;;;;;;;13.30;99.90;;;;;;4908095;29;19935;-89
2022/02/09 15:24:02;;;;;;;;;;;13.30;99.90;;;;;;4888943;29;19927;-87
2022/02/09 15:26:33;;;;;;;;;;;13.30;99.90;;;;;;4932525;29;19927;-88
2022/02/09 15:29:03;;;;;;;;;;;13.30;99.90;;;;;;4907913;29;19927;-87
2022/02/09 15:31:41;;;;;;;;;;;13.20;99.90;;;;;;4906639;29;19931;-89
2022/02/09 15:34:47;;;;;;;;;;;13.40;99.90;;;;;;4905442;29;19927;-85
2022/02/09 15:37:32;;;;;;;;;;;12.80;99.90;;;;;;4905135;29;19927;-87
2022/02/09 15:40:34;;;;;;;;;;;13.40;99.90;;;;;;4888023;29;19923;-87
2022/02/09 16:05:51;;;;;;;;;;;13.10;99.90;;;;;;4924502;29;19927;-88
2022/02/09 16:11:45;;;;;;;;;;;13.00;99.90;;;;;;4893727;29;19927;-88
2022/02/09 16:22:51;;;;;;;;;;;12.90;99.90;;;;;;4909930;29;19927;-86
2022/02/09 16:44:39;;;;;;;;;;;12.70;99.90;;;;;;4909337;29;20231;-85
2022/02/09 16:47:37;;;;;;;;;;;12.90;99.90;;;;;;4910756;29;19934;-86
2022/02/09 16:50:14;;;;;;;;;;;12.70;99.90;;;;;;4911197;29;19927;-86
2022/02/09 16:52:57;;;;;;;;;;;12.70;99.90;;;;;;4888590;29;19939;-86
2022/02/09 17:20:34;;;;;;;;;;;12.50;99.90;;;;;;4902381;29;19958;-86
2022/02/09 17:23:04;;;;;;;;;;;12.50;99.90;;;;;;4890410;29;19966;-87
2022/02/09 17:25:34;;;;;;;;;;;12.50;99.90;;;;;;4886913;29;19938;-88
2022/02/09 17:28:09;;;;;;;;;;;11.60;99.90;;;;;;4920693;29;19932;-87
2022/02/09 17:33:45;;;;;;;;;;;12.60;99.90;;;;;;4905617;29;20495;-87
2022/02/09 17:58:15;;;;;;;;;;;11.90;99.90;;;;;;4903351;29;20298;-87
2022/02/09 18:00:47;;;;;;;;;;;11.80;99.90;;;;;;4915214;29;19931;-86
2022/02/09 18:03:18;;;;;;;;;;;11.70;99.90;;;;;;4900096;29;20434;-86
2022/02/09 18:05:52;;;;;;;;;;;11.50;99.90;;;;;;4917728;29;20272;-87
2022/02/09 18:29:40;;;;;;;;;;;11.70;99.90;;;;;;4931426;29;19938;-89
2022/02/09 18:37:51;;;;;;;;;;;11.30;99.90;;;;;;4917151;29;19938;-85
2022/02/09 18:42:59;;;;;;;;;;;11.60;99.90;;;;;;4891473;29;19928;-85
2022/02/09 18:45:52;;;;;;;;;;;11.60;99.90;;;;;;4884403;29;19931;-88
2022/02/09 19:05:17;;;;;;;;;;;11.60;99.90;;;;;;4918195;29;19935;-85
2022/02/09 19:08:32;;;;;;;;;;;11.60;99.90;;;;;;4885523;29;19927;-87
2022/02/09 19:19:10;;;;;;;;;;;11.20;99.90;;;;;;4897909;29;19931;-88
2022/02/09 19:28:03;;;;;;;;;;;11.00;99.90;;;;;;4929252;29;19943;-87
2022/02/09 19:56:46;;;;;;;;;;;10.70;99.90;;;;;;4903118;29;20385;-88
2022/02/09 19:59:17;;;;;;;;;;;10.60;99.90;;;;;;4910661;29;19934;-86
2022/02/09 20:01:47;;;;;;;;;;;10.70;99.90;;;;;;4896180;29;19927;-87
2022/02/09 20:04:15;;;;;;;;;;;10.70;99.90;;;;;;4916827;29;20267;-87
2022/02/09 20:06:43;;;;;;;;;;;10.70;99.90;;;;;;4928186;29;19927;-87
2022/02/09 20:09:11;;;;;;;;;;;10.70;99.90;;;;;;4907145;29;19931;-88
2022/02/09 20:11:42;;;;;;;;;;;10.70;99.90;;;;;;4905005;29;20510;-86
2022/02/09 20:14:11;;;;;;;;;;;11.40;99.90;;;;;;4905057;29;19931;-86
2022/02/09 20:16:40;;;;;;;;;;;10.70;99.90;;;;;;4906791;29;19931;-88
2022/02/09 20:19:09;;;;;;;;;;;10.70;99.90;;;;;;4893406;29;19927;-87
2022/02/09 20:21:37;;;;;;;;;;;10.70;99.90;;;;;;4912448;29;19927;-87
2022/02/09 20:24:07;;;;;;;;;;;10.80;99.90;;;;;;4905753;29;19954;-87
2022/02/09 20:26:35;;;;;;;;;;;10.70;99.90;;;;;;4941226;29;19927;-89
2022/02/09 20:29:09;;;;;;;;;;;10.70;99.90;;;;;;4925940;29;19945;-86
2022/02/09 20:34:32;;;;;;;;;;;9.20;99.90;;;;;;4941190;29;19926;-86
2022/02/09 20:36:59;;;;;;;;;;;10.80;99.90;;;;;;4941346;29;19931;-86
2022/02/09 20:39:40;;;;;;;;;;;10.80;99.90;;;;;;4924942;29;20374;-84
2022/02/09 20:42:15;;;;;;;;;;;10.80;99.90;;;;;;4890162;29;19927;-88
2022/02/09 20:44:45;;;;;;;;;;;10.80;99.90;;;;;;4905751;29;19931;-87
2022/02/09 20:47:14;;;;;;;;;;;10.80;99.90;;;;;;4905160;29;20298;-89
2022/02/09 20:49:42;;;;;;;;;;;10.80;99.90;;;;;;4910349;29;19927;-86
2022/02/09 20:52:13;;;;;;;;;;;10.90;99.90;;;;;;4921373;29;19952;-87
2022/02/09 20:54:42;;;;;;;;;;;10.90;99.90;;;;;;4902854;29;19938;-87
2022/02/09 20:57:09;;;;;;;;;;;10.80;99.90;;;;;;4908527;29;19927;-87
2022/02/09 20:59:43;;;;;;;;;;;10.90;99.90;;;;;;4906010;29;19934;-88
2022/02/09 21:02:33;;;;;;;;;;;10.90;99.90;;;;;;4905830;29;20284;-87
2022/02/09 21:05:22;;;;;;;;;;;10.80;99.90;;;;;;4921559;29;19935;-88
2022/02/09 21:08:11;;;;;;;;;;;10.90;99.90;;;;;;4903322;29;19931;-87
2022/02/09 21:13:43;;;;;;;;;;;10.80;99.90;;;;;;4904830;29;19935;-86
2022/02/09 21:54:17;;;;;;;;;;;10.70;99.90;;;;;;4918084;29;19927;-88
2022/02/09 22:00:16;;;;;;;;;;;10.70;99.90;;;;;;4898647;29;19946;-88
2022/02/09 22:16:47;;;;;;;;;;;10.60;99.90;;;;;;4919320;29;19934;-88
2022/02/09 22:22:01;;;;;;;;;;;10.00;99.90;;;;;;4916961;29;19935;-87
2022/02/09 22:55:11;;;;;;;;;;;10.70;99.90;;;;;;4931861;29;19927;-88
2022/02/09 22:57:54;;;;;;;;;;;10.70;99.90;;;;;;4916744;29;19934;-88
2022/02/09 23:00:48;;;;;;;;;;;10.70;99.90;;;;;;4908154;29;19927;-87
2022/02/09 23:03:39;;;;;;;;;;;10.60;99.90;;;;;;4884391;29;19931;-88
2022/02/09 23:11:48;;;;;;;;;;;10.50;99.90;;;;;;4904854;29;19951;-88
2022/02/09 23:28:59;;;;;;;;;;;10.30;99.90;;;;;;4878449;29;19928;-87
